createdAt,value
2022-12-25T00:00:47.100Z,26.55
2022-12-25T00:01:47.079Z,28.63
2022-12-25T00:02:47.133Z,27.50
2022-12-25T00:03:47.132Z,29.46
2022-12-25T00:04:47.029Z,29.72
2022-12-25T00:05:47.017Z,29.51
2022-12-25T00:06:47.000Z,29.48
2022-12-25T00:07:46.989Z,31.16
2022-12-25T00:08:47.000Z,29.62
2022-12-25T00:09:46.973Z,28.48
2022-12-25T00:10:46.949Z,27.83
2022-12-25T00:11:46.937Z,26.74
2022-12-25T00:12:46.957Z,27.93
2022-12-25T00:13:46.914Z,29.10
2022-12-25T00:14:46.905Z,27.83
2022-12-25T00:15:46.917Z,28.51
2022-12-25T00:16:46.933Z,29.47
2022-12-25T00:17:46.845Z,30.52
2022-12-25T00:18:46.843Z,27.20
2022-12-25T00:19:46.841Z,25.80
2022-12-25T00:20:46.813Z,26.57
2022-12-25T00:21:46.808Z,27.80
2022-12-25T00:22:46.791Z,27.13
2022-12-25T00:23:46.770Z,29.96
2022-12-25T00:24:46.760Z,30.84
2022-12-25T00:25:46.754Z,29.40
2022-12-25T00:26:46.757Z,30.79
2022-12-25T00:27:46.746Z,28.48
2022-12-25T00:28:46.726Z,31.06
2022-12-25T00:29:46.716Z,30.26
2022-12-25T00:30:46.716Z,31.43
2022-12-25T00:31:46.715Z,30.60
2022-12-25T00:32:46.689Z,31.06
2022-12-25T00:33:46.665Z,27.20
2022-12-25T00:34:46.673Z,27.89
2022-12-25T00:35:46.673Z,27.45
2022-12-25T00:36:46.665Z,29.12
2022-12-25T00:37:46.645Z,28.83
2022-12-25T00:38:46.630Z,31.11
2022-12-25T00:39:46.628Z,28.97
2022-12-25T00:40:46.614Z,29.40
2022-12-25T00:41:46.611Z,27.92
2022-12-25T00:42:46.606Z,26.54
2022-12-25T00:43:46.599Z,27.67
2022-12-25T00:44:46.584Z,25.97
2022-12-25T00:45:46.640Z,28.57
2022-12-25T00:46:46.600Z,27.46
2022-12-25T00:47:46.548Z,28.28
2022-12-25T00:48:46.552Z,28.35
2022-12-25T00:49:46.543Z,28.09
2022-12-25T00:50:46.540Z,28.65
2022-12-25T00:51:46.514Z,29.68
2022-12-25T00:52:46.493Z,28.52
2022-12-25T00:53:46.491Z,28.97
2022-12-25T00:54:46.484Z,25.93
2022-12-25T00:55:46.478Z,28.28
2022-12-25T00:56:46.465Z,30.20
2022-12-25T00:57:46.469Z,29.81
2022-12-25T00:58:46.458Z,25.78
2022-12-25T00:59:46.437Z,31.19
2022-12-25T01:00:46.495Z,27.14
2022-12-25T01:01:46.547Z,28.53
2022-12-25T01:02:46.571Z,29.33
2022-12-25T01:03:46.438Z,26.82
2022-12-25T01:04:46.412Z,28.89
2022-12-25T01:05:46.410Z,27.51
2022-12-25T01:06:46.412Z,25.45
2022-12-25T01:07:46.397Z,28.28
2022-12-25T01:08:46.384Z,29.30
2022-12-25T01:09:46.373Z,30.19
2022-12-25T01:10:46.370Z,30.28
2022-12-25T01:11:46.362Z,28.60
2022-12-25T01:12:46.344Z,28.18
2022-12-25T01:13:46.339Z,27.39
2022-12-25T01:14:46.309Z,28.47
2022-12-25T01:15:46.311Z,27.71
2022-12-25T01:16:46.335Z,30.62
2022-12-25T01:17:46.281Z,30.94
2022-12-25T01:18:46.268Z,28.24
2022-12-25T01:19:46.247Z,31.07
2022-12-25T01:20:46.234Z,29.45
2022-12-25T01:21:46.222Z,29.66
2022-12-25T01:22:46.219Z,27.36
2022-12-25T01:23:46.187Z,27.98
2022-12-25T01:24:46.172Z,29.77
2022-12-25T01:25:46.186Z,28.41
2022-12-25T01:26:46.158Z,28.42
2022-12-25T01:27:46.152Z,27.96
2022-12-25T01:28:46.126Z,27.91
2022-12-25T01:29:46.115Z,25.53
2022-12-25T01:30:46.100Z,28.58
2022-12-25T01:31:46.149Z,26.33
2022-12-25T01:32:46.073Z,29.18
2022-12-25T01:33:46.081Z,29.69
2022-12-25T01:34:49.326Z,27.53
2022-12-25T01:36:46.023Z,28.10
2022-12-25T01:37:46.012Z,28.53
2022-12-25T01:38:46.032Z,28.52
2022-12-25T01:39:46.024Z,28.16
2022-12-25T01:40:45.987Z,29.68
2022-12-25T01:41:45.975Z,29.51
2022-12-25T01:42:45.974Z,31.02
2022-12-25T01:43:45.945Z,27.59
2022-12-25T01:44:45.955Z,28.88
2022-12-25T01:45:45.991Z,28.10
2022-12-25T01:46:45.917Z,26.74
2022-12-25T01:47:45.922Z,25.07
2022-12-25T01:48:45.903Z,28.65
2022-12-25T01:49:45.871Z,29.57
2022-12-25T01:50:45.856Z,26.39
2022-12-25T01:51:45.839Z,28.55
2022-12-25T01:52:45.825Z,27.42
2022-12-25T01:53:45.826Z,30.48
2022-12-25T01:54:45.824Z,28.56
2022-12-25T01:55:45.808Z,33.37
2022-12-25T01:56:45.812Z,27.04
2022-12-25T01:57:45.780Z,27.79
2022-12-25T01:58:45.773Z,26.94
2022-12-25T01:59:45.754Z,25.54
2022-12-25T02:00:45.776Z,28.64
2022-12-25T02:01:46.051Z,26.90
2022-12-25T02:02:45.840Z,26.22
2022-12-25T02:03:45.710Z,28.67
2022-12-25T02:05:45.674Z,26.91
2022-12-25T02:06:45.660Z,26.55
2022-12-25T02:17:45.564Z,29.52
2022-12-25T03:38:50.133Z,31.36
2022-12-25T03:39:50.194Z,26.49
2022-12-25T03:40:50.249Z,29.22
2022-12-25T03:41:50.304Z,30.65
2022-12-25T03:42:50.336Z,29.01
2022-12-25T03:43:50.397Z,29.77
2022-12-25T03:44:50.444Z,29.96
2022-12-25T03:45:50.517Z,32.33
2022-12-25T03:46:50.555Z,29.54
2022-12-25T03:47:50.592Z,31.34
2022-12-25T03:48:50.651Z,32.57
2022-12-25T03:49:50.699Z,30.01
2022-12-25T03:50:50.760Z,30.59
2022-12-25T03:51:50.811Z,31.05
2022-12-25T03:52:50.834Z,31.51
2022-12-25T03:53:50.906Z,28.25
2022-12-25T03:54:50.933Z,28.89
2022-12-25T03:55:50.979Z,31.33
2022-12-25T03:56:51.060Z,30.19
2022-12-25T03:57:51.217Z,30.93
2022-12-25T03:58:51.253Z,31.69
2022-12-25T03:59:51.238Z,31.01
2022-12-25T04:00:51.238Z,30.06
2022-12-25T04:01:51.376Z,30.74
2022-12-25T04:02:51.460Z,32.12
2022-12-25T04:03:51.389Z,27.71
2022-12-25T04:04:51.424Z,27.98
2022-12-25T04:05:51.447Z,26.75
2022-12-25T10:17:51.450Z,45.35
2022-12-25T10:18:51.360Z,46.88
2022-12-25T10:19:51.354Z,46.23
2022-12-25T10:20:51.294Z,45.23
2022-12-25T10:21:51.258Z,43.07
2022-12-25T10:22:51.242Z,47.36
2022-12-25T10:23:51.212Z,46.18
2022-12-25T10:24:51.175Z,47.18
2022-12-25T10:25:51.175Z,47.50
2022-12-25T10:26:51.125Z,47.88
2022-12-25T10:27:51.098Z,49.08
2022-12-25T10:28:51.075Z,48.54
2022-12-25T10:29:51.054Z,49.54
2022-12-25T10:30:51.039Z,50.91
2022-12-25T10:31:50.993Z,50.75
2022-12-25T10:32:50.959Z,52.52
2022-12-25T10:33:50.956Z,51.33
2022-12-25T10:34:50.921Z,51.16
2022-12-25T10:35:50.904Z,51.46
2022-12-25T10:36:50.914Z,52.28
2022-12-25T10:37:50.836Z,50.60
2022-12-25T10:38:50.815Z,52.05
2022-12-25T10:39:50.787Z,51.00
2022-12-25T10:40:50.748Z,52.65
2022-12-25T10:41:50.730Z,52.37
2022-12-25T10:42:50.700Z,51.68
2022-12-25T10:43:50.706Z,53.52
2022-12-25T10:44:50.647Z,51.87
2022-12-25T10:45:50.627Z,50.85
2022-12-25T10:46:50.654Z,52.84
2022-12-25T10:47:59.534Z,54.52
2022-12-25T10:48:51.550Z,54.78
2022-12-25T10:49:50.497Z,54.87
2022-12-25T10:50:50.458Z,55.14
2022-12-25T10:51:50.423Z,53.92
2022-12-25T10:52:50.400Z,54.78
2022-12-25T10:53:50.357Z,52.83
2022-12-25T10:54:50.322Z,55.00
2022-12-25T10:55:50.293Z,54.50
2022-12-25T10:56:50.264Z,54.70
2022-12-25T10:57:50.236Z,54.95
2022-12-25T10:58:50.210Z,54.79
2022-12-25T10:59:50.171Z,53.93
2022-12-25T11:00:50.129Z,52.99
2022-12-25T13:23:42.278Z,129.87
2022-12-25T13:25:42.098Z,145.26
2022-12-25T13:26:42.005Z,155.76
2022-12-25T13:27:41.902Z,155.98
2022-12-25T13:28:41.814Z,156.40
2022-12-25T13:30:41.669Z,160.90
2022-12-25T13:31:41.565Z,167.33
2022-12-25T13:32:41.420Z,162.47
2022-12-25T13:33:41.271Z,160.89
2022-12-25T13:34:41.180Z,151.23
2022-12-25T13:35:41.091Z,137.19
2022-12-25T13:36:40.967Z,119.46
2022-12-25T13:37:40.872Z,107.37
2022-12-25T13:38:40.784Z,91.37
2022-12-25T13:39:40.700Z,75.60
2022-12-25T13:40:40.629Z,62.69
2022-12-25T13:41:40.557Z,62.70
2022-12-25T13:42:40.489Z,51.39
2022-12-25T13:43:40.429Z,45.62
2022-12-25T13:44:40.399Z,38.84
2022-12-25T13:45:40.341Z,29.99
2022-12-25T13:46:40.274Z,28.37
2022-12-25T13:47:40.199Z,25.88
2022-12-25T13:48:40.136Z,25.00
2022-12-25T18:38:32.924Z,32.30
2022-12-25T18:44:32.829Z,30.51
2022-12-25T18:52:49.975Z,31.13
2022-12-25T22:28:40.124Z,32.49
2022-12-25T22:29:40.157Z,27.15
2022-12-25T22:30:40.394Z,29.00
2022-12-25T22:31:46.435Z,32.11
2022-12-25T22:32:41.230Z,32.12
2022-12-25T22:33:40.212Z,31.72
2022-12-25T22:34:40.189Z,30.93
2022-12-25T22:35:40.168Z,29.95
2022-12-25T22:36:40.165Z,29.45
2022-12-25T22:37:40.169Z,29.85
2022-12-25T22:38:40.121Z,26.68
2022-12-25T22:39:40.132Z,25.85
